createdAt,value
2022-11-26T00:00:51.162Z,43.97
2022-11-26T00:04:05.035Z,50.40
2022-11-26T00:07:11.183Z,50.13
2022-11-26T00:10:22.430Z,49.97
2022-11-26T00:13:26.935Z,46.27
2022-11-26T00:16:30.355Z,49.23
2022-11-26T00:19:32.489Z,49.23
2022-11-26T00:22:44.215Z,50.20
2022-11-26T00:25:50.487Z,46.13
2022-11-26T00:29:02.592Z,48.90
2022-11-26T00:32:14.632Z,48.57
2022-11-26T00:35:16.582Z,50.30
2022-11-26T00:38:21.721Z,49.93
2022-11-26T00:41:28.918Z,51.07
2022-11-26T00:44:32.226Z,48.90
2022-11-26T00:47:34.052Z,49.43
2022-11-26T00:50:50.782Z,48.87
2022-11-26T00:53:58.779Z,48.20
2022-11-26T00:57:04.053Z,49.23
2022-11-26T01:00:20.033Z,50.13
2022-11-26T01:03:22.606Z,51.10
2022-11-26T01:06:32.360Z,51.77
2022-11-26T01:09:34.437Z,49.03
2022-11-26T01:12:36.276Z,50.30
2022-11-26T01:15:40.676Z,50.30
2022-11-26T01:18:42.540Z,50.90
2022-11-26T01:21:44.659Z,50.30
2022-11-26T01:24:46.828Z,51.63
2022-11-26T01:27:49.578Z,51.10
2022-11-26T01:30:51.454Z,51.83
2022-11-26T01:33:53.968Z,49.17
2022-11-26T01:36:55.794Z,48.27
2022-11-26T01:39:57.851Z,47.87
2022-11-26T01:43:06.151Z,48.30
2022-11-26T01:46:15.698Z,47.63
2022-11-26T01:49:18.883Z,45.10
2022-11-26T01:52:24.968Z,46.73
2022-11-26T01:55:35.883Z,47.93
2022-11-26T01:58:40.950Z,48.70
2022-11-26T02:01:42.818Z,46.23
2022-11-26T02:05:00.209Z,47.23
2022-11-26T02:08:02.771Z,49.40
2022-11-26T02:11:20.711Z,46.87
2022-11-26T02:14:23.991Z,46.57
2022-11-26T02:17:43.260Z,46.57
2022-11-26T02:20:56.089Z,46.97
2022-11-26T02:24:12.539Z,44.17
2022-11-26T02:27:25.268Z,45.77
2022-11-26T02:30:30.546Z,45.67
2022-11-26T02:33:53.937Z,48.37
2022-11-26T02:37:01.752Z,45.70
2022-11-26T02:40:04.871Z,46.07
2022-11-26T02:43:06.939Z,44.73
2022-11-26T02:46:14.272Z,44.77
2022-11-26T02:49:22.636Z,43.43
2022-11-26T02:52:26.572Z,44.40
2022-11-26T02:55:33.337Z,43.83
2022-11-26T02:58:35.974Z,42.27
2022-11-26T03:02:05.127Z,43.30
2022-11-26T03:05:08.688Z,40.33
2022-11-26T03:08:10.837Z,37.27
2022-11-26T03:11:13.244Z,41.03
2022-11-26T03:14:15.616Z,35.93
2022-11-26T03:17:17.794Z,40.40
2022-11-26T03:20:19.879Z,39.83
2022-11-26T03:23:21.886Z,35.00
2022-11-26T03:26:24.116Z,38.10
2022-11-26T03:29:25.997Z,36.00
2022-11-26T03:32:28.109Z,39.93
2022-11-26T03:35:30.005Z,38.90
2022-11-26T03:38:35.840Z,37.90
2022-11-26T03:41:37.881Z,37.77
2022-11-26T03:44:40.230Z,37.20
2022-11-26T03:47:42.303Z,38.27
2022-11-26T03:50:44.430Z,37.27
2022-11-26T03:53:46.915Z,36.90
2022-11-26T03:56:51.352Z,37.53
2022-11-26T03:59:53.186Z,37.20
2022-11-26T04:02:55.310Z,36.70
2022-11-26T04:05:57.273Z,36.73
2022-11-26T04:08:59.333Z,44.67
2022-11-26T04:12:01.195Z,35.50
2022-11-26T04:15:03.846Z,36.00
2022-11-26T04:18:05.676Z,35.57
2022-11-26T04:21:10.300Z,37.73
2022-11-26T04:24:12.121Z,34.97
2022-11-26T04:27:14.246Z,34.43
2022-11-26T04:30:16.218Z,35.13
2022-11-26T04:33:18.755Z,38.33
2022-11-26T04:36:20.592Z,43.60
2022-11-26T04:39:22.741Z,41.10
2022-11-26T04:42:24.610Z,41.43
2022-11-26T04:45:27.444Z,38.07
2022-11-26T04:48:29.406Z,36.83
2022-11-26T04:51:31.579Z,36.83
2022-11-26T04:54:33.473Z,36.40
2022-11-26T04:57:35.732Z,37.03
2022-11-26T05:00:37.523Z,36.47
2022-11-26T05:03:39.613Z,33.53
2022-11-26T05:06:41.385Z,35.27
2022-11-26T05:09:43.508Z,34.83
2022-11-26T05:12:48.727Z,35.03
2022-11-26T05:15:50.832Z,33.80
2022-11-26T05:18:52.681Z,32.53
2022-11-26T05:21:54.765Z,33.07
2022-11-26T05:24:56.556Z,32.23
2022-11-26T05:27:58.713Z,33.17
2022-11-26T05:31:02.344Z,33.53
2022-11-26T05:34:04.486Z,34.97
2022-11-26T05:37:06.463Z,32.40
2022-11-26T05:40:09.847Z,36.80
2022-11-26T05:43:11.755Z,38.27
2022-11-26T05:46:16.477Z,32.83
2022-11-26T05:49:18.350Z,36.27
2022-11-26T05:52:21.495Z,32.90
2022-11-26T05:55:23.276Z,31.17
2022-11-26T05:58:25.593Z,30.87
2022-11-26T06:01:27.394Z,32.97
2022-11-26T06:04:29.567Z,32.97
2022-11-26T06:07:31.431Z,32.40
2022-11-26T06:10:33.662Z,34.20
2022-11-26T06:13:35.454Z,31.40
2022-11-26T06:16:37.812Z,32.83
2022-11-26T06:19:39.921Z,31.97
2022-11-26T06:22:45.917Z,34.90
2022-11-26T06:25:48.737Z,29.13
2022-11-26T06:28:50.899Z,33.63
2022-11-26T06:31:52.765Z,30.87
2022-11-26T06:34:55.469Z,33.23
2022-11-26T06:37:57.367Z,36.40
2022-11-26T06:41:05.605Z,34.43
2022-11-26T06:44:07.474Z,32.43
2022-11-26T06:47:13.842Z,34.53
2022-11-26T06:50:18.021Z,32.80
2022-11-26T06:53:20.210Z,31.40
2022-11-26T06:56:22.151Z,34.23
2022-11-26T06:59:24.505Z,34.10
2022-11-26T07:02:26.342Z,34.30
2022-11-26T07:05:33.489Z,33.67
2022-11-26T07:08:35.258Z,35.07
2022-11-26T07:11:39.181Z,31.20
2022-11-26T07:14:41.213Z,30.80
2022-11-26T07:17:43.609Z,35.00
2022-11-26T07:20:46.432Z,36.93
2022-11-26T07:23:50.552Z,37.43
2022-11-26T07:26:52.361Z,36.70
2022-11-26T07:29:54.477Z,33.37
2022-11-26T07:32:56.282Z,36.33
2022-11-26T07:36:03.142Z,36.77
2022-11-26T07:39:04.978Z,38.33
2022-11-26T07:42:13.781Z,35.27
2022-11-26T07:45:15.649Z,36.57
2022-11-26T07:48:17.713Z,38.67
2022-11-26T07:51:24.655Z,47.07
2022-11-26T07:54:26.806Z,40.90
2022-11-26T07:57:28.649Z,50.20
2022-11-26T08:00:31.732Z,72.10
2022-11-26T08:03:36.448Z,41.43
2022-11-26T08:06:38.783Z,49.80
2022-11-26T08:09:40.846Z,44.87
2022-11-26T08:12:42.944Z,44.37
2022-11-26T08:15:47.888Z,43.00
2022-11-26T08:18:57.491Z,46.97
2022-11-26T08:21:59.320Z,39.63
2022-11-26T08:25:01.438Z,51.47
2022-11-26T08:28:03.341Z,41.67
2022-11-26T08:31:07.758Z,44.80
2022-11-26T08:34:14.285Z,39.77
2022-11-26T08:37:16.348Z,41.03
2022-11-26T08:40:18.370Z,41.60
2022-11-26T08:43:30.812Z,41.63
2022-11-26T08:46:41.940Z,41.70
2022-11-26T08:49:44.226Z,39.77
2022-11-26T08:52:45.980Z,43.17
2022-11-26T08:56:00.032Z,41.73
2022-11-26T08:59:03.014Z,43.40
2022-11-26T09:02:05.457Z,47.57
2022-11-26T09:05:07.733Z,44.83
2022-11-26T09:08:09.821Z,43.37
2022-11-26T09:11:12.223Z,42.20
2022-11-26T09:14:15.670Z,42.53
2022-11-26T09:17:17.621Z,43.80
2022-11-26T09:20:19.949Z,51.10
2022-11-26T09:23:21.788Z,64.57
2022-11-26T09:26:25.221Z,45.00
2022-11-26T09:29:27.106Z,41.60
2022-11-26T09:32:33.936Z,42.73
2022-11-26T09:35:36.137Z,34.40
2022-11-26T09:38:38.803Z,35.10
2022-11-26T09:41:43.683Z,40.27
2022-11-26T09:45:30.324Z,39.70
2022-11-26T09:48:34.208Z,41.00
2022-11-26T09:51:36.822Z,43.47
2022-11-26T09:54:40.015Z,40.07
2022-11-26T09:57:46.619Z,41.60
2022-11-26T10:00:51.993Z,47.73
2022-11-26T10:03:54.460Z,42.80
2022-11-26T10:07:20.445Z,52.07
2022-11-26T10:10:36.269Z,33.40
2022-11-26T10:13:38.124Z,36.97
2022-11-26T10:17:04.755Z,31.93
2022-11-26T10:20:13.183Z,34.20
2022-11-26T10:23:41.904Z,33.20
2022-11-26T10:26:44.717Z,41.73
2022-11-26T10:29:56.444Z,32.37
2022-11-26T10:33:03.449Z,34.30
2022-11-26T10:36:14.635Z,36.93
2022-11-26T10:39:19.466Z,36.17
2022-11-26T10:42:23.424Z,37.70
2022-11-26T10:45:36.012Z,35.07
2022-11-26T10:48:38.181Z,37.67
2022-11-26T10:51:40.333Z,35.27
2022-11-26T10:54:46.082Z,35.23
2022-11-26T10:57:58.745Z,36.30
2022-11-26T11:01:04.411Z,38.30
2022-11-26T11:04:22.355Z,35.33
2022-11-26T11:07:38.122Z,43.90
2022-11-26T11:11:02.688Z,36.47
2022-11-26T11:14:28.915Z,41.67
2022-11-26T11:17:36.837Z,56.43
2022-11-26T11:20:41.798Z,42.80
2022-11-26T11:24:07.722Z,48.87
2022-11-26T11:27:06.024Z,43.30
2022-11-26T11:30:25.462Z,40.13
2022-11-26T11:33:29.076Z,38.80
2022-11-26T11:36:30.993Z,36.37
2022-11-26T11:39:35.380Z,31.37
2022-11-26T11:42:40.423Z,34.53
2022-11-26T11:46:09.036Z,38.80
2022-11-26T11:49:43.234Z,33.07
2022-11-26T11:53:17.913Z,32.83
2022-11-26T11:56:44.184Z,32.67
2022-11-26T12:00:13.619Z,30.10
2022-11-26T12:03:33.606Z,28.63
2022-11-26T12:07:18.479Z,39.03
2022-11-26T12:10:44.628Z,27.87
2022-11-26T12:13:52.041Z,28.03
2022-11-26T12:17:04.057Z,27.07
2022-11-26T12:20:41.561Z,27.03
2022-11-26T12:23:53.505Z,28.53
2022-11-26T12:27:04.638Z,29.73
2022-11-26T12:30:15.244Z,27.47
2022-11-26T12:33:25.592Z,27.77
2022-11-26T12:36:36.472Z,50.03
2022-11-26T12:39:58.894Z,31.93
2022-11-26T12:43:27.707Z,46.20
2022-11-26T12:46:39.652Z,31.97
2022-11-26T12:50:07.195Z,31.00
2022-11-26T12:53:44.449Z,30.13
2022-11-26T12:57:31.370Z,54.87
2022-11-26T13:00:36.520Z,40.30
2022-11-26T13:03:38.676Z,39.87
2022-11-26T13:06:50.180Z,38.20
2022-11-26T13:10:15.553Z,34.63
2022-11-26T13:13:38.315Z,34.27
2022-11-26T13:16:56.450Z,28.97
2022-11-26T13:20:32.146Z,27.73
2022-11-26T13:23:49.530Z,30.07
2022-11-26T13:27:10.341Z,31.33
2022-11-26T13:30:31.765Z,32.43
2022-11-26T13:33:42.813Z,32.87
2022-11-26T13:37:09.533Z,33.23
2022-11-26T13:40:20.909Z,32.53
2022-11-26T13:43:55.235Z,30.47
2022-11-26T13:47:01.294Z,33.10
2022-11-26T13:50:17.320Z,31.70
2022-11-26T13:54:04.842Z,31.73
2022-11-26T13:57:13.263Z,31.33
2022-11-26T14:00:31.393Z,31.77
2022-11-26T14:03:51.108Z,33.00
2022-11-26T14:07:05.498Z,33.40
2022-11-26T14:10:38.986Z,34.97
2022-11-26T14:13:42.372Z,36.13
2022-11-26T14:17:02.916Z,39.60
2022-11-26T14:20:06.014Z,34.07
2022-11-26T14:23:43.609Z,31.80
2022-11-26T14:26:45.718Z,31.43
2022-11-26T14:30:13.306Z,32.93
2022-11-26T14:33:18.799Z,31.90
2022-11-26T14:36:26.624Z,32.17
2022-11-26T14:39:29.545Z,32.80
2022-11-26T14:42:32.734Z,32.73
2022-11-26T14:45:42.574Z,33.27
2022-11-26T14:48:48.964Z,30.87
2022-11-26T14:51:55.406Z,31.93
2022-11-26T14:55:00.014Z,31.27
2022-11-26T14:58:19.087Z,30.40
2022-11-26T15:01:22.881Z,29.77
2022-11-26T15:04:30.640Z,29.23
2022-11-26T15:07:32.828Z,27.67
2022-11-26T15:10:38.967Z,29.60
2022-11-26T15:13:45.792Z,31.83
2022-11-26T15:16:55.412Z,31.23
2022-11-26T15:20:01.809Z,30.07
2022-11-26T15:23:06.631Z,31.53
2022-11-26T15:26:17.124Z,34.80
2022-11-26T15:29:41.481Z,33.37
2022-11-26T15:32:43.354Z,32.60
2022-11-26T15:35:46.074Z,34.70
2022-11-26T15:39:03.204Z,31.67
2022-11-26T15:42:22.009Z,34.30
2022-11-26T15:45:35.502Z,34.97
2022-11-26T15:48:57.979Z,33.07
2022-11-26T15:52:03.680Z,34.50
2022-11-26T15:55:12.856Z,33.93
2022-11-26T15:58:22.026Z,34.17
2022-11-26T16:01:29.712Z,33.30
2022-11-26T16:04:42.855Z,32.37
2022-11-26T16:07:57.043Z,33.00
2022-11-26T16:11:17.862Z,34.53
2022-11-26T16:14:26.819Z,31.80
2022-11-26T16:17:28.771Z,34.07
2022-11-26T16:20:30.953Z,36.20
2022-11-26T16:23:33.235Z,35.37
2022-11-26T16:27:00.708Z,32.03
2022-11-26T16:30:14.049Z,31.30
2022-11-26T16:33:16.227Z,32.03
2022-11-26T16:36:24.949Z,34.50
2022-11-26T16:39:30.225Z,33.47
2022-11-26T16:42:32.720Z,34.27
2022-11-26T16:45:36.292Z,34.27
2022-11-26T16:48:39.361Z,36.53
2022-11-26T16:51:41.661Z,46.87
2022-11-26T16:54:43.665Z,58.60
2022-11-26T16:57:49.763Z,50.37
2022-11-26T17:00:51.701Z,37.70
2022-11-26T17:03:53.898Z,37.37
2022-11-26T17:06:55.833Z,31.20
2022-11-26T17:09:58.042Z,28.90
2022-11-26T17:12:59.906Z,36.73
2022-11-26T17:16:03.038Z,36.43
2022-11-26T17:19:05.075Z,34.90
2022-11-26T17:22:11.761Z,33.17
2022-11-26T17:25:14.433Z,32.33
2022-11-26T17:28:16.596Z,37.40
2022-11-26T17:31:20.761Z,41.90
2022-11-26T17:34:26.052Z,40.50
2022-11-26T17:37:29.759Z,40.23
2022-11-26T17:40:32.545Z,38.37
2022-11-26T17:43:34.381Z,39.43
2022-11-26T17:47:01.052Z,37.57
2022-11-26T17:49:58.368Z,38.67
2022-11-26T17:53:00.534Z,41.87
2022-11-26T17:56:02.459Z,42.20
2022-11-26T17:59:04.570Z,47.07
2022-11-26T18:02:07.083Z,57.00
2022-11-26T18:05:10.399Z,54.83
2022-11-26T18:08:12.202Z,53.53
2022-11-26T18:11:15.976Z,48.53
2022-11-26T18:14:18.287Z,48.70
2022-11-26T18:17:20.846Z,48.83
2022-11-26T18:20:26.950Z,46.17
2022-11-26T18:23:29.132Z,48.00
2022-11-26T18:26:31.315Z,48.57
2022-11-26T18:29:33.509Z,48.73
2022-11-26T18:32:37.399Z,50.50
2022-11-26T18:35:41.562Z,47.53
2022-11-26T18:38:43.456Z,50.80
2022-11-26T18:41:45.555Z,49.63
2022-11-26T18:44:47.624Z,49.23
2022-11-26T18:47:49.813Z,45.70
2022-11-26T18:50:58.544Z,39.60
2022-11-26T18:54:01.813Z,39.43
2022-11-26T18:57:03.698Z,38.37
2022-11-26T19:00:07.198Z,40.70
2022-11-26T19:03:10.526Z,44.20
2022-11-26T19:06:32.690Z,39.70
2022-11-26T19:09:38.087Z,38.67
2022-11-26T19:12:40.669Z,37.40
2022-11-26T19:15:48.951Z,37.87
2022-11-26T19:18:51.603Z,36.73
2022-11-26T19:22:00.495Z,37.53
2022-11-26T19:25:04.263Z,38.30
2022-11-26T19:28:09.907Z,37.23
2022-11-26T19:31:20.086Z,35.80
2022-11-26T19:34:24.234Z,36.97
2022-11-26T19:37:29.615Z,38.03
2022-11-26T19:40:35.560Z,36.20
2022-11-26T19:43:41.384Z,37.73
2022-11-26T19:46:43.382Z,39.17
2022-11-26T19:49:45.642Z,42.17
2022-11-26T19:52:49.753Z,41.20
2022-11-26T19:56:08.508Z,42.23
2022-11-26T19:59:12.683Z,42.40
2022-11-26T20:02:15.543Z,42.73
2022-11-26T20:05:17.522Z,42.50
2022-11-26T20:08:19.644Z,41.57
2022-11-26T20:11:22.752Z,44.10
2022-11-26T20:14:24.879Z,42.87
2022-11-26T20:17:27.927Z,45.37
2022-11-26T20:20:30.061Z,46.50
2022-11-26T20:23:32.000Z,44.97
2022-11-26T20:26:38.198Z,48.70
2022-11-26T20:29:40.210Z,49.07
2022-11-26T20:32:42.445Z,51.83
2022-11-26T20:35:44.937Z,51.27
2022-11-26T20:38:47.510Z,51.20
2022-11-26T20:41:49.994Z,49.43
2022-11-26T20:44:52.098Z,44.90
2022-11-26T20:47:54.083Z,44.67
2022-11-26T20:51:01.984Z,45.37
2022-11-26T20:54:04.275Z,42.63
2022-11-26T20:57:07.298Z,41.03
2022-11-26T21:00:10.511Z,42.63
2022-11-26T21:03:12.748Z,41.03
2022-11-26T21:06:16.579Z,40.63
2022-11-26T21:09:18.690Z,38.73
2022-11-26T21:12:20.574Z,40.23
2022-11-26T21:15:23.535Z,40.67
2022-11-26T21:18:25.373Z,40.03
2022-11-26T21:21:28.965Z,38.83
2022-11-26T21:24:30.825Z,38.43
2022-11-26T21:27:33.881Z,37.33
2022-11-26T21:30:37.101Z,36.00
2022-11-26T21:33:39.249Z,33.53
2022-11-26T21:36:43.305Z,34.33
2022-11-26T21:39:45.545Z,35.00
2022-11-26T21:42:49.669Z,35.57
2022-11-26T21:45:51.783Z,33.13
2022-11-26T21:48:56.033Z,33.07
2022-11-26T21:51:58.641Z,32.43
2022-11-26T21:55:03.569Z,32.80
2022-11-26T21:58:06.136Z,32.00
2022-11-26T22:01:29.725Z,32.43
2022-11-26T22:04:32.863Z,32.37
2022-11-26T22:07:34.998Z,33.67
2022-11-26T22:10:37.232Z,32.60
2022-11-26T22:13:40.447Z,31.43
2022-11-26T22:16:43.661Z,32.30
2022-11-26T22:19:45.579Z,32.00
2022-11-26T22:22:47.677Z,30.80
2022-11-26T22:25:49.585Z,32.90
2022-11-26T22:28:52.429Z,31.70
2022-11-26T22:31:54.347Z,31.47
2022-11-26T22:34:56.454Z,29.53
2022-11-26T22:37:58.334Z,29.93
2022-11-26T22:41:02.742Z,30.27
2022-11-26T22:44:04.977Z,30.70
2022-11-26T22:47:07.097Z,30.43
2022-11-26T22:50:09.345Z,33.03
2022-11-26T22:53:11.448Z,33.70
2022-11-26T22:56:13.441Z,30.73
2022-11-26T22:59:15.675Z,30.30
2022-11-26T23:02:17.552Z,32.43
2022-11-26T23:05:19.823Z,32.20
2022-11-26T23:08:22.467Z,31.10
2022-11-26T23:11:39.566Z,34.50
2022-11-26T23:14:41.403Z,33.37
2022-11-26T23:17:43.461Z,35.17
2022-11-26T23:20:45.447Z,34.90
2022-11-26T23:23:47.852Z,32.73
2022-11-26T23:26:49.656Z,33.43
2022-11-26T23:29:52.246Z,33.40
2022-11-26T23:32:54.048Z,33.90
2022-11-26T23:35:56.956Z,32.63
2022-11-26T23:39:00.323Z,33.47
2022-11-26T23:42:02.395Z,31.40
2022-11-26T23:45:04.597Z,34.27
2022-11-26T23:48:06.706Z,37.20
2022-11-26T23:51:11.265Z,33.87
2022-11-26T23:54:13.389Z,32.53
2022-11-26T23:57:15.402Z,30.13
